Lebanon, OR

11:13 AM PDT on September 18, 2014 (GMT -0700)
Near Downtown - Grant | Change Station
CLOSE
Current Station
Personal Weather Station
Location: Lebanon, OR
Elevation: 354 ft
Nearby Weather Stations

Elev 354 ft 44.54 °N, 122.90 °W | Updated 2 seconds ago

Overcast
Overcast
65.8 °F
Feels Like 65.8 °F
N
3.8
Wind Variable Wind from North
Gusts 3.8 mph

Today
High -- | Low -- °F
--% Chance of Precip.
Yesterday
High -- | Low -- °F
Precip. -- in
6:54 AM 7:16 PM
Waning Crescent, 25% visible
Pressure 29.88 in
Visibility 9.0 miles
Clouds Few 5000 ft
Overcast 7000 ft
Dew Point 60 °F
Humidity 80%
Rainfall 0.00 in
Snow Depth 0 in , 1 in , 0 in
UV 1 out of 12
Pollen .40 out of 12
Ozone Good
PM2.5 Moderate
Flu Activity Not available.
METAR KCVO 181755Z AUTO 02003KT 9SM FEW050 OVC070 18/14 A2988 RMK AO1 10180 20140 52017

More Conditions Fewer Conditions

Pressure 29.88 in
Visibility 9.0 miles
Clouds Few 5000 ft
Overcast 7000 ft
Dew Point 60 °F
Humidity 80%
Rainfall 0.00 in
Snow Depth 0 in , 1 in , 0 in
UV 1 out of 12
Pollen .40 out of 12
Ozone Good
PM2.5 Moderate
Flu Activity Not available.
METAR KCVO 181755Z AUTO 02003KT 9SM FEW050 OVC070 18/14 A2988 RMK AO1 10180 20140 52017

More Conditions Fewer Conditions

10-Day Weather Forecast

Almanac

Astronomy

Sep. 18, 2014 Rise Set
Actual Time 6:54 AM PDT 7:16 PM PDT
Civil Twilight 6:24 AM PDT 7:45 PM PDT
Nautical Twilight 5:50 AM PDT 8:19 PM PDT
Astronomical Twilight 5:15 AM PDT 8:55 PM PDT
Moon 1:41 AM PDT 4:19 PM PDT
Length of Visible Light 13h 20m
Length of Day
12h 22m
Tomorrow will be 3m 4s shorter.
Waning Crescent, 25% of the Moon is Illuminated
Today
Waning Crescent
Sep 24
New
Oct 1
First Quarter
Oct 8
Full
Oct 15
Last Quarter

Today's Extremes

State Highs State Lows

Community

WunderPhotos

Upload Photos

1,754,410 photos uploaded!

Nearby

Air Quality

  Air Quality AQ Index Pollutant
Yesterday Moderate
PM2.5
Yesterday Good
OZONE
Current Moderate
PM2.5
Current Good
OZONE
Thursday Good
PM2.5
Friday Good
PM2.5

Snow Depth

Station Depth Elevation
Salt Creek Falls 0 in 4000 ft
Mt. Howard 1 in 7910 ft
Mckenzie 0 in 4800 ft
Tipton 0 in 5150 ft
Fish Lake 0 in 4665 ft

Earthquake Activity

City Distance Mag. Time & Date
Morton, Washington 126 miles 3.0 5:43 AM PDT
2014-09-16
Minimum magnitude displayed is 2.5.

Coastal Water Temperatures

Place Temperature
No Stations Reporting

Nearby Weather Stations